createdAt,value
2023-03-06T00:00:57.326Z,5.30
2023-03-06T00:03:27.783Z,5.30
2023-03-06T00:05:57.332Z,5.30
2023-03-06T00:21:41.127Z,5.20
2023-03-06T00:33:58.395Z,5.30
2023-03-06T00:38:52.564Z,5.30
2023-03-06T00:41:20.436Z,5.40
2023-03-06T00:46:14.512Z,5.40
2023-03-06T00:48:41.322Z,5.30
2023-03-06T00:56:02.801Z,5.40
2023-03-06T00:58:29.633Z,5.30
2023-03-06T01:00:56.863Z,5.40
2023-03-06T01:03:23.664Z,5.40
2023-03-06T01:05:52.692Z,5.40
2023-03-06T01:08:19.544Z,5.50
2023-03-06T01:13:13.650Z,5.40
2023-03-06T01:15:40.665Z,5.40
2023-03-06T01:18:07.462Z,5.40
2023-03-06T01:25:30.854Z,5.40
2023-03-06T01:27:57.669Z,5.40
2023-03-06T01:35:19.007Z,5.40
2023-03-06T01:37:45.901Z,5.30
2023-03-06T01:40:13.418Z,5.40
2023-03-06T01:42:40.331Z,5.40
2023-03-06T01:45:13.236Z,5.40
2023-03-06T01:47:40.343Z,7.10
2023-03-06T01:50:10.373Z,5.40
2023-03-06T01:52:47.633Z,5.20
2023-03-06T01:55:18.534Z,5.40
2023-03-06T01:57:48.747Z,5.40
2023-03-06T02:00:21.077Z,5.40
2023-03-06T02:02:53.223Z,5.30
2023-03-06T02:05:20.150Z,5.30
2023-03-06T02:07:47.904Z,5.20
2023-03-06T02:10:17.879Z,5.20
2023-03-06T02:12:45.777Z,5.20
2023-03-06T02:15:15.348Z,5.10
2023-03-06T02:17:44.276Z,5.10
2023-03-06T02:20:32.097Z,5.00
2023-03-06T02:23:04.766Z,4.80
2023-03-06T02:25:34.793Z,4.90
2023-03-06T02:28:02.086Z,4.90
2023-03-06T02:30:30.582Z,4.70
2023-03-06T02:32:58.793Z,4.70
2023-03-06T02:35:30.285Z,4.70
2023-03-06T02:38:02.059Z,4.70
2023-03-06T02:42:58.523Z,4.60
2023-03-06T02:45:35.574Z,4.60
2023-03-06T03:10:17.285Z,5.10
2023-03-06T03:15:13.987Z,5.00
2023-03-06T03:17:41.673Z,5.00
2023-03-06T03:20:12.324Z,5.10
2023-03-06T03:34:57.243Z,5.00
2023-03-06T03:42:36.169Z,5.00
2023-03-06T03:45:05.161Z,5.00
2023-03-06T03:47:32.168Z,5.00
2023-03-06T03:50:00.211Z,5.00
2023-03-06T03:52:27.311Z,5.00
2023-03-06T03:54:54.562Z,5.00
2023-03-06T03:57:21.788Z,4.70
2023-03-06T03:59:51.518Z,5.00
2023-03-06T04:02:36.909Z,4.90
2023-03-06T04:05:14.634Z,5.00
2023-03-06T04:07:43.060Z,5.00
2023-03-06T04:10:12.509Z,5.10
2023-03-06T04:12:40.141Z,5.00
2023-03-06T04:15:08.013Z,5.10
2023-03-06T04:17:35.722Z,4.90
2023-03-06T04:20:06.058Z,5.10
2023-03-06T04:22:33.910Z,5.10
2023-03-06T04:25:00.948Z,5.10
2023-03-06T04:29:56.413Z,5.10
2023-03-06T04:32:24.235Z,5.10
2023-03-06T04:34:51.819Z,5.10
2023-03-06T04:37:22.007Z,5.10
2023-03-06T04:39:49.500Z,5.20
2023-03-06T04:44:43.961Z,5.20
2023-03-06T04:47:11.759Z,5.10
2023-03-06T05:19:06.425Z,5.10
2023-03-06T05:33:49.980Z,5.00
2023-03-06T05:36:16.827Z,5.00
2023-03-06T05:41:13.097Z,4.90
2023-03-06T05:46:08.096Z,4.90
2023-03-06T05:58:33.053Z,4.90
2023-03-06T06:01:13.122Z,5.10
2023-03-06T06:06:09.240Z,5.10
2023-03-06T06:11:08.352Z,5.10
2023-03-06T06:16:11.602Z,5.00
2023-03-06T06:21:14.421Z,5.10
2023-03-06T06:26:09.803Z,5.10
2023-03-06T06:31:12.465Z,5.10
2023-03-06T06:36:15.738Z,5.10
2023-03-06T06:43:59.413Z,5.00
2023-03-06T07:06:43.006Z,5.20
2023-03-06T07:11:38.961Z,5.30
2023-03-06T07:49:00.081Z,5.70
2023-03-06T07:58:49.346Z,5.90
2023-03-06T08:01:20.031Z,6.00
2023-03-06T08:06:19.536Z,6.10
2023-03-06T08:08:49.037Z,6.10
2023-03-06T08:11:18.803Z,6.00
2023-03-06T08:21:16.377Z,6.00
2023-03-06T08:26:21.369Z,6.00
2023-03-06T08:31:26.951Z,6.00
2023-03-06T08:33:54.883Z,6.00
2023-03-06T08:51:09.518Z,5.80
2023-03-06T08:56:22.676Z,5.80
2023-03-06T09:01:20.498Z,5.70
2023-03-06T09:11:13.384Z,5.80
2023-03-06T09:16:08.978Z,5.80
2023-03-06T09:21:04.944Z,5.80
2023-03-06T09:26:00.861Z,5.80
2023-03-06T09:35:54.193Z,5.90
2023-03-06T09:38:24.214Z,6.00
2023-03-06T09:41:30.391Z,6.00
2023-03-06T09:44:31.559Z,6.10
2023-03-06T09:47:20.279Z,6.10
2023-03-06T09:50:14.370Z,6.10
2023-03-06T09:53:11.916Z,6.20
2023-03-06T09:55:40.797Z,6.10
2023-03-06T09:58:23.290Z,6.20
2023-03-06T10:01:16.337Z,6.20
2023-03-06T10:06:21.130Z,6.20
2023-03-06T10:09:02.531Z,9.00
2023-03-06T10:11:39.417Z,6.20
2023-03-06T10:14:35.172Z,6.10
2023-03-06T10:17:03.371Z,6.10
2023-03-06T10:19:41.120Z,6.20
2023-03-06T10:22:36.820Z,8.20
2023-03-06T10:25:28.118Z,6.20
2023-03-06T10:28:08.835Z,6.20
2023-03-06T10:31:11.538Z,8.40
2023-03-06T10:34:07.962Z,6.20
2023-03-06T10:39:14.166Z,6.20
2023-03-06T10:46:39.490Z,6.10
2023-03-06T10:49:21.648Z,6.10
2023-03-06T10:52:04.769Z,6.20
2023-03-06T10:54:34.629Z,6.20
2023-03-06T10:57:31.805Z,8.40
2023-03-06T11:00:08.638Z,6.10
2023-03-06T11:02:38.688Z,6.10
2023-03-06T11:05:06.856Z,6.10
2023-03-06T11:07:35.500Z,6.10
2023-03-06T11:10:19.343Z,6.10
2023-03-06T11:13:17.171Z,6.20
2023-03-06T11:16:05.904Z,6.30
2023-03-06T11:18:37.650Z,6.20
2023-03-06T11:21:23.330Z,6.30
2023-03-06T11:23:52.131Z,6.30
2023-03-06T11:26:32.583Z,6.40
2023-03-06T11:29:38.474Z,8.70
2023-03-06T11:32:26.808Z,6.40
2023-03-06T11:35:04.391Z,6.50
2023-03-06T11:37:54.045Z,6.40
2023-03-06T11:42:58.355Z,6.50
2023-03-06T11:45:47.295Z,6.60
2023-03-06T11:50:52.714Z,6.60
2023-03-06T11:53:23.479Z,6.60
2023-03-06T11:58:40.362Z,6.60
2023-03-06T12:01:17.567Z,6.50
2023-03-06T12:03:47.730Z,6.60
2023-03-06T12:06:28.740Z,6.60
2023-03-06T12:09:19.448Z,6.60
2023-03-06T12:12:24.016Z,10.30
2023-03-06T12:17:52.025Z,6.70
2023-03-06T12:20:40.146Z,6.70
2023-03-06T12:23:28.553Z,6.70
2023-03-06T12:26:09.883Z,6.70
2023-03-06T12:28:58.503Z,6.60
2023-03-06T12:31:56.368Z,6.60
2023-03-06T12:34:44.804Z,6.70
2023-03-06T12:39:42.184Z,6.70
2023-03-06T12:42:29.582Z,7.90
2023-03-06T12:45:27.988Z,8.30
2023-03-06T12:47:57.030Z,6.70
2023-03-06T12:50:27.073Z,6.70
2023-03-06T12:52:56.839Z,6.60
2023-03-06T12:55:25.968Z,6.60
2023-03-06T13:00:34.308Z,6.50
2023-03-06T13:03:44.981Z,10.20
2023-03-06T13:06:44.988Z,6.50
2023-03-06T13:09:36.053Z,6.50
2023-03-06T13:12:25.557Z,6.40
2023-03-06T13:15:00.857Z,6.40
2023-03-06T13:17:35.375Z,6.30
2023-03-06T13:20:14.770Z,6.30
2023-03-06T13:22:47.526Z,6.30
2023-03-06T13:25:17.547Z,6.30
2023-03-06T13:27:49.422Z,6.30
2023-03-06T13:30:23.016Z,6.30
2023-03-06T13:32:52.901Z,6.30
2023-03-06T13:35:42.846Z,8.90
2023-03-06T13:38:33.382Z,6.30
2023-03-06T13:41:35.464Z,6.30
2023-03-06T13:44:26.379Z,6.30
2023-03-06T13:47:59.092Z,6.20
2023-03-06T13:50:26.866Z,9.70
2023-03-06T13:53:13.027Z,6.40
2023-03-06T13:56:05.073Z,6.20
2023-03-06T13:58:56.612Z,6.10
2023-03-06T14:01:46.358Z,6.10
2023-03-06T14:04:54.289Z,5.80
2023-03-06T14:07:29.724Z,5.70
2023-03-06T14:12:36.383Z,5.60
2023-03-06T14:15:21.591Z,5.60
2023-03-06T14:18:00.432Z,5.60
2023-03-06T14:20:44.921Z,5.60
2023-03-06T14:23:24.142Z,5.70
2023-03-06T14:26:17.427Z,5.70
2023-03-06T14:28:55.299Z,5.80
2023-03-06T14:31:40.819Z,5.90
2023-03-06T14:34:15.547Z,5.90
2023-03-06T14:36:48.983Z,6.00
2023-03-06T14:39:41.785Z,6.00
2023-03-06T14:42:22.141Z,6.00
2023-03-06T14:44:49.566Z,6.00
2023-03-06T14:47:34.563Z,9.00
2023-03-06T14:50:34.638Z,6.20
2023-03-06T14:53:14.874Z,6.30
2023-03-06T14:55:48.622Z,9.60
2023-03-06T14:58:19.951Z,6.30
2023-03-06T15:00:50.970Z,6.30
2023-03-06T15:03:41.609Z,6.30
2023-03-06T15:06:12.169Z,6.30
2023-03-06T15:08:42.343Z,6.20
2023-03-06T15:16:15.181Z,6.30
2023-03-06T15:19:01.988Z,6.20
2023-03-06T15:21:36.230Z,6.40
2023-03-06T15:24:36.981Z,6.40
2023-03-06T15:27:06.551Z,6.40
2023-03-06T15:29:37.713Z,6.30
2023-03-06T15:32:39.182Z,8.10
2023-03-06T15:35:24.704Z,6.30
2023-03-06T15:40:24.368Z,6.30
2023-03-06T15:45:27.690Z,6.30
2023-03-06T15:47:55.733Z,6.30
2023-03-06T15:50:26.105Z,8.60
2023-03-06T15:55:28.440Z,6.30
2023-03-06T15:58:02.172Z,6.20
2023-03-06T16:00:34.161Z,6.30
2023-03-06T16:03:02.203Z,6.20
2023-03-06T16:10:27.475Z,6.20
2023-03-06T16:13:06.278Z,6.30
2023-03-06T16:15:39.999Z,6.40
2023-03-06T16:30:33.131Z,6.30
2023-03-06T16:42:51.668Z,6.30
2023-03-06T16:45:20.547Z,6.30
2023-03-06T16:47:48.104Z,6.20
2023-03-06T16:50:36.392Z,5.50
2023-03-06T16:53:04.230Z,6.20
2023-03-06T17:20:12.720Z,6.00
2023-03-06T17:25:09.228Z,6.00
2023-03-06T17:30:05.404Z,6.00
2023-03-06T17:32:32.923Z,5.90
2023-03-06T18:21:43.754Z,5.40
2023-03-06T18:24:12.371Z,5.40
2023-03-06T18:26:42.268Z,4.90
2023-03-06T18:31:39.003Z,5.40
2023-03-06T18:34:13.575Z,5.40
2023-03-06T18:36:52.682Z,5.30
2023-03-06T18:49:12.658Z,5.20
2023-03-06T18:51:40.231Z,5.00
2023-03-06T18:54:11.385Z,5.30
2023-03-06T19:04:05.202Z,5.30
2023-03-06T19:16:27.063Z,5.10
2023-03-06T19:18:57.644Z,5.20
2023-03-06T19:21:26.840Z,5.10
2023-03-06T19:31:40.139Z,5.10
2023-03-06T19:39:12.864Z,5.10
2023-03-06T19:41:47.764Z,5.00
2023-03-06T19:49:16.901Z,4.90
2023-03-06T19:54:12.879Z,4.90
2023-03-06T19:56:40.815Z,4.80
2023-03-06T19:59:11.590Z,4.80
2023-03-06T20:04:07.786Z,4.60
2023-03-06T20:09:20.405Z,4.60
2023-03-06T20:12:17.716Z,4.60
2023-03-06T20:27:34.558Z,4.80
2023-03-06T20:33:34.992Z,4.70
2023-03-06T20:36:40.855Z,4.70
2023-03-06T20:39:18.343Z,4.70
2023-03-06T20:44:34.599Z,4.70
2023-03-06T20:49:32.296Z,4.70
2023-03-06T20:54:29.870Z,4.80
2023-03-06T20:58:00.142Z,2.70
2023-03-06T21:00:27.453Z,5.20
2023-03-06T21:10:08.745Z,4.70
2023-03-06T21:19:44.682Z,4.50
2023-03-06T21:22:11.784Z,7.20
2023-03-06T21:24:38.722Z,4.70
2023-03-06T21:27:05.689Z,4.60
2023-03-06T21:29:32.568Z,4.60
2023-03-06T21:31:59.559Z,4.60
2023-03-06T21:34:26.488Z,4.70
2023-03-06T21:36:53.427Z,4.70
2023-03-06T21:39:21.351Z,4.70
2023-03-06T21:41:48.261Z,4.60
2023-03-06T21:44:15.270Z,4.70
2023-03-06T21:46:42.225Z,4.70
2023-03-06T21:49:09.583Z,4.70
2023-03-06T21:54:05.990Z,4.70
2023-03-06T21:56:33.713Z,4.70
2023-03-06T21:59:01.104Z,4.70
2023-03-06T22:01:29.002Z,4.70
2023-03-06T22:03:57.409Z,4.70
2023-03-06T22:06:26.680Z,4.70
2023-03-06T22:08:55.528Z,5.60
2023-03-06T22:11:24.249Z,4.70
2023-03-06T22:13:53.396Z,4.70
2023-03-06T22:16:20.941Z,4.60
2023-03-06T22:18:49.920Z,4.70
2023-03-06T22:21:18.875Z,4.70
2023-03-06T22:23:53.299Z,4.70
2023-03-06T22:28:48.076Z,4.70
2023-03-06T22:31:21.462Z,4.70
2023-03-06T22:33:52.181Z,4.70
2023-03-06T22:36:20.361Z,4.70
2023-03-06T22:38:48.509Z,4.80
2023-03-06T22:41:17.555Z,4.80
2023-03-06T22:43:44.617Z,4.80
2023-03-06T22:46:15.141Z,4.80
2023-03-06T22:48:42.849Z,4.80
2023-03-06T22:51:15.505Z,4.80
2023-03-06T22:53:43.085Z,4.80
2023-03-06T22:56:12.349Z,4.80
2023-03-06T23:01:19.307Z,4.80
2023-03-06T23:03:51.892Z,4.80
2023-03-06T23:06:20.227Z,4.80
2023-03-06T23:08:59.979Z,4.90
2023-03-06T23:14:17.470Z,4.90
2023-03-06T23:17:03.151Z,5.00
2023-03-06T23:19:49.735Z,5.00
2023-03-06T23:22:34.979Z,5.00
2023-03-06T23:27:47.963Z,5.00
2023-03-06T23:30:15.066Z,4.90
2023-03-06T23:32:43.745Z,4.90
2023-03-06T23:40:09.012Z,5.00
2023-03-06T23:42:36.225Z,5.00
2023-03-06T23:45:03.355Z,5.00
2023-03-06T23:47:33.907Z,5.00
2023-03-06T23:52:28.110Z,5.00
2023-03-06T23:54:54.996Z,5.00
2023-03-06T23:57:21.913Z,4.90
2023-03-06T23:59:48.859Z,4.90
